Jette Viking Hv77 — 5QEP — position and weather

sailwx.info

Track history (hours):
 
Tides and Currents Weather Stations Pressure Air Temp Water Temp Dewpoint Dewpoint Depression Visibility Wind Speed Wind Dir Waves Ship Positions

Jette Viking Hv77

Last reported at 2014-Sep-02 03:29 UTC. Time now 2014-Sep-02 04:21 UTC.
Position N 57°29' E 010°53'.

Length 16 m.

Type: Fishing. MMSI: 220046000.

Date/timePositionNaut miles runAvg speedWind from/ knotsBaromVisibWave heightAir tempDewpointWater temp
2014-Sep-02 03:29N 57°29' E 010°53'2 2.6
2014-Sep-02 02:34N 57°30' E 010°57'3 2.5
2014-Sep-02 01:33N 57°32' E 011°01'2 2.5
2014-Sep-02 00:33N 57°33' E 011°04'3 2.5
2014-Sep-01 23:34N 57°35' E 011°07'1 0.6
2014-Sep-01 22:33N 57°35' E 011°07'3 2.6
2014-Sep-01 21:34N 57°33' E 011°03'3 2.6
2014-Sep-01 20:33N 57°31' E 010°60'3 2.6
2014-Sep-01 19:33N 57°30' E 010°56'2 2.5
2014-Sep-01 18:33N 57°28' E 010°52'6 5.4
2014-Sep-01 17:30N 57°28' E 010°42'6 1.5
2014-Sep-01 13:28N 57°30' E 010°30'0 0.0
2014-Sep-01 08:20N 57°30' E 010°30'0 0.0
2014-Sep-01 07:17N 57°30' E 010°30'0 0.0
2014-Sep-01 06:30N 57°30' E 010°30'0 0.0
2014-Sep-01 05:09N 57°30' E 010°30'0 0.0
2014-Sep-01 04:23N 57°30' E 010°30'0 0.0
2014-Sep-01 03:30N 57°30' E 010°30'0 0.0
2014-Sep-01 02:28N 57°30' E 010°30'0 0.0
2014-Sep-01 01:32N 57°30' E 010°30'0 0.0
2014-Sep-01 00:33N 57°30' E 010°30'0 0.0
2014-Aug-31 23:33N 57°30' E 010°30'0 0.0
2014-Aug-31 22:06N 57°30' E 010°30'0 0.0
2014-Aug-31 21:26N 57°30' E 010°30'0 0.0
2014-Aug-31 18:29N 57°30' E 010°30'0 0.0
2014-Aug-31 17:32N 57°30' E 010°30'0 0.0
2014-Aug-31 10:30N 57°30' E 010°30'0 0.0
2014-Aug-31 09:19N 57°30' E 010°30'0 0.0
2014-Aug-31 08:27N 57°30' E 010°30'0 0.0
2014-Aug-31 07:30N 57°30' E 010°30'0 0.0
2014-Aug-31 06:30N 57°30' E 010°30'0 0.0
2014-Aug-31 05:34N 57°30' E 010°30'0 0.0
2014-Aug-31 04:33N 57°30' E 010°30'0 0.0
2014-Aug-31 03:33N 57°30' E 010°30'0 0.0
2014-Aug-31 02:33N 57°30' E 010°30'0 0.0
2014-Aug-31 01:33N 57°30' E 010°30'0 0.0
2014-Aug-31 00:33N 57°30' E 010°30'0 0.0
2014-Aug-30 23:33N 57°30' E 010°30'0 0.0
2014-Aug-30 22:34N 57°30' E 010°30'0 0.0
2014-Aug-30 21:34N 57°30' E 010°30'0 0.0
2014-Aug-30 20:32N 57°30' E 010°30'0 0.0
2014-Aug-30 19:33N 57°30' E 010°30'0 0.0
2014-Aug-30 18:32N 57°30' E 010°30'0 0.0
2014-Aug-30 17:30N 57°30' E 010°30'0 0.0
2014-Aug-30 16:25N 57°30' E 010°30'0 0.0
2014-Aug-30 15:32N 57°30' E 010°30'0 0.0
2014-Aug-30 14:31N 57°30' E 010°30'0 0.0
2014-Aug-30 13:33N 57°30' E 010°30'0 0.0
2014-Aug-30 12:31N 57°30' E 010°30'0 0.0
2014-Aug-30 10:25N 57°30' E 010°30'0 0.0
2014-Aug-30 09:29N 57°30' E 010°30'0 0.0
2014-Aug-30 08:33N 57°30' E 010°30'0 0.0
2014-Aug-30 07:30N 57°30' E 010°30'0 0.0
2014-Aug-30 06:33N 57°30' E 010°30'0 0.0
2014-Aug-30 05:33N 57°30' E 010°30'0 0.0
2014-Aug-30 04:33N 57°30' E 010°30'0 0.0
2014-Aug-30 03:34N 57°30' E 010°30'0 0.0
2014-Aug-30 02:31N 57°30' E 010°30'0 0.0
2014-Aug-30 01:32N 57°30' E 010°30'0 0.0
2014-Aug-30 00:33N 57°30' E 010°30'0 0.0
2014-Aug-29 23:30N 57°30' E 010°30'0 0.0
2014-Aug-29 22:32N 57°30' E 010°30'0 0.0
2014-Aug-29 21:33N 57°30' E 010°30'0 0.0
2014-Aug-29 20:29N 57°30' E 010°30'0 0.0
2014-Aug-29 19:33N 57°30' E 010°30'0 0.0
2014-Aug-29 18:11N 57°30' E 010°30'0 0.0
2014-Aug-29 17:10N 57°30' E 010°30'0 0.0
2014-Aug-29 16:06N 57°30' E 010°30'0 0.0
2014-Aug-29 15:32N 57°30' E 010°30'0 0.0
2014-Aug-29 11:23N 57°30' E 010°30'0 0.0
2014-Aug-29 10:33N 57°30' E 010°30'0 0.0
2014-Aug-29 08:19N 57°30' E 010°30'0 0.0
2014-Aug-29 07:28N 57°30' E 010°30'0 0.0
2014-Aug-29 06:33N 57°30' E 010°30'0 0.0
2014-Aug-29 05:33N 57°30' E 010°30'13 5.5
2014-Aug-29 03:14N 57°30' E 010°54'9 2.3
2014-Aug-28 23:26N 57°35' E 011°08'0 0.4
2014-Aug-28 22:33N 57°35' E 011°08'2 2.5
2014-Aug-28 21:33N 57°33' E 011°05'2 2.5
2014-Aug-28 20:34N 57°32' E 011°01'3 2.5
2014-Aug-28 19:34N 57°30' E 010°57'3 2.5
2014-Aug-28 18:33N 57°29' E 010°54'13 1.0
2014-Aug-28 06:27N 57°30' E 010°30'0 0.0
2014-Aug-28 05:33N 57°30' E 010°30'0 0.0
2014-Aug-28 04:24N 57°30' E 010°30'9 2.3
2014-Aug-28 00:23N 57°28' E 010°47'3 3.5
2014-Aug-27 23:33N 57°28' E 010°53'3 2.5
2014-Aug-27 22:22N 57°30' E 010°57'2 2.5
2014-Aug-27 21:31N 57°32' E 010°60'2 2.5
2014-Aug-27 20:31N 57°33' E 011°04'2 2.5
2014-Aug-27 19:33N 57°34' E 011°08'2 2.4
2014-Aug-27 18:33N 57°36' E 011°10'3 2.5
2014-Aug-27 17:33N 57°39' E 011°10'3 2.5
2014-Aug-27 16:32N 57°41' E 011°08'2 2.0
2014-Aug-27 15:33N 57°43' E 011°06'5 2.3
2014-Aug-27 13:33N 57°47' E 011°07'2 2.4
2014-Aug-27 12:33N 57°50' E 011°07'2 2.3
2014-Aug-27 11:33N 57°49' E 011°03'2 2.3
2014-Aug-27 10:33N 57°47' E 010°60'3 2.5
2014-Aug-27 09:33N 57°49' E 011°03'2 1.6
2014-Aug-27 08:28N 57°48' E 011°01'1 0.7
2014-Aug-27 07:24N 57°48' E 011°02'3 2.6
2014-Aug-27 06:20N 57°50' E 011°06'2 2.4
2014-Aug-27 05:33N 57°48' E 011°07'2 2.5
2014-Aug-27 04:33N 57°46' E 011°09'2 2.4
2014-Aug-27 03:33N 57°43' E 011°09'2 2.5
2014-Aug-27 02:33N 57°44' E 011°05'1 0.6
2014-Aug-27 01:33N 57°44' E 011°05'3 2.5
2014-Aug-27 00:33N 57°41' E 011°06'3 2.6
2014-Aug-26 23:33N 57°39' E 011°06'2 2.5
2014-Aug-26 22:34N 57°36' E 011°06'3 2.6
2014-Aug-26 21:34N 57°34' E 011°04'2 2.4
2014-Aug-26 20:34N 57°32' E 011°01'3 2.6
2014-Aug-26 19:33N 57°30' E 010°57'3 2.5
2014-Aug-26 18:33N 57°29' E 010°54'12 6.1
2014-Aug-26 16:33N 57°30' E 010°31'0 0.4
2014-Aug-26 15:22N 57°30' E 010°30'0 0.2
2014-Aug-26 14:29N 57°30' E 010°30'0 0.0
2014-Aug-26 08:20N 57°30' E 010°30'0 0.0
2014-Aug-26 07:30N 57°30' E 010°30'0 0.0
2014-Aug-26 06:32N 57°30' E 010°30'0 0.0
2014-Aug-26 05:31N 57°30' E 010°30'9 4.3
2014-Aug-26 03:24N 57°29' E 010°47'4 4.4
2014-Aug-26 02:33N 57°29' E 010°54'10 2.4
2014-Aug-25 22:33N 57°35' E 011°08'2 2.2
2014-Aug-25 21:33N 57°34' E 011°05'3 2.5
2014-Aug-25 20:11N 57°32' E 011°00'2 2.5
2014-Aug-25 19:33N 57°31' E 010°58'2 2.5
2014-Aug-25 18:34N 57°29' E 010°54'9 0.4
2014-Aug-24 21:09N 57°34' E 010°39'6 0.4
2014-Aug-24 07:16N 57°30' E 010°30'0 0.0
2014-Aug-24 06:22N 57°30' E 010°30'0 0.0
2014-Aug-24 05:11N 57°30' E 010°30'0 0.0
2014-Aug-24 04:09N 57°30' E 010°30'0 0.0
2014-Aug-24 03:33N 57°30' E 010°30'0 0.0
2014-Aug-24 02:33N 57°30' E 010°30'0 0.0
2014-Aug-24 01:32N 57°30' E 010°30'0 0.0
2014-Aug-24 00:23N 57°30' E 010°30'0 0.0
2014-Aug-23 23:29N 57°30' E 010°30'0 0.0
2014-Aug-23 22:32N 57°30' E 010°30'0 0.0
2014-Aug-23 21:30N 57°30' E 010°30'0 0.0
2014-Aug-23 20:30N 57°30' E 010°30'0 0.0
2014-Aug-23 19:32N 57°30' E 010°30'0 0.0
2014-Aug-23 03:32N 57°30' E 010°30'  
Track history (hours):
 
Tides and Currents Weather Stations Pressure Air Temp Water Temp Dewpoint Dewpoint Depression Visibility Wind Speed Wind Dir Waves Ship Positions

Jette Viking Hv77

Last reported at 2014-Sep-02 03:29 UTC. Time now 2014-Sep-02 04:21 UTC.
Position N 57°29' E 010°53'.

Length 16 m.

Type: Fishing. MMSI: 220046000.

Date/timePositionNaut miles runAvg speedWind from/ knotsBaromVisibWave heightAir tempDewpointWater temp
2014-Sep-02 03:29N 57°29' E 010°53'2 2.6
2014-Sep-02 02:34N 57°30' E 010°57'3 2.5
2014-Sep-02 01:33N 57°32' E 011°01'2 2.5
2014-Sep-02 00:33N 57°33' E 011°04'3 2.5
2014-Sep-01 23:34N 57°35' E 011°07'1 0.6
2014-Sep-01 22:33N 57°35' E 011°07'3 2.6
2014-Sep-01 21:34N 57°33' E 011°03'3 2.6
2014-Sep-01 20:33N 57°31' E 010°60'3 2.6
2014-Sep-01 19:33N 57°30' E 010°56'2 2.5
2014-Sep-01 18:33N 57°28' E 010°52'6 5.4
2014-Sep-01 17:30N 57°28' E 010°42'6 1.5
2014-Sep-01 13:28N 57°30' E 010°30'0 0.0
2014-Sep-01 08:20N 57°30' E 010°30'0 0.0
2014-Sep-01 07:17N 57°30' E 010°30'0 0.0
2014-Sep-01 06:30N 57°30' E 010°30'0 0.0
2014-Sep-01 05:09N 57°30' E 010°30'0 0.0
2014-Sep-01 04:23N 57°30' E 010°30'0 0.0
2014-Sep-01 03:30N 57°30' E 010°30'0 0.0
2014-Sep-01 02:28N 57°30' E 010°30'0 0.0
2014-Sep-01 01:32N 57°30' E 010°30'0 0.0
2014-Sep-01 00:33N 57°30' E 010°30'0 0.0
2014-Aug-31 23:33N 57°30' E 010°30'0 0.0
2014-Aug-31 22:06N 57°30' E 010°30'0 0.0
2014-Aug-31 21:26N 57°30' E 010°30'0 0.0
2014-Aug-31 18:29N 57°30' E 010°30'0 0.0
2014-Aug-31 17:32N 57°30' E 010°30'0 0.0
2014-Aug-31 10:30N 57°30' E 010°30'0 0.0
2014-Aug-31 09:19N 57°30' E 010°30'0 0.0
2014-Aug-31 08:27N 57°30' E 010°30'0 0.0
2014-Aug-31 07:30N 57°30' E 010°30'0 0.0
2014-Aug-31 06:30N 57°30' E 010°30'0 0.0
2014-Aug-31 05:34N 57°30' E 010°30'0 0.0
2014-Aug-31 04:33N 57°30' E 010°30'0 0.0
2014-Aug-31 03:33N 57°30' E 010°30'0 0.0
2014-Aug-31 02:33N 57°30' E 010°30'0 0.0
2014-Aug-31 01:33N 57°30' E 010°30'0 0.0
2014-Aug-31 00:33N 57°30' E 010°30'0 0.0
2014-Aug-30 23:33N 57°30' E 010°30'0 0.0
2014-Aug-30 22:34N 57°30' E 010°30'0 0.0
2014-Aug-30 21:34N 57°30' E 010°30'0 0.0
2014-Aug-30 20:32N 57°30' E 010°30'0 0.0
2014-Aug-30 19:33N 57°30' E 010°30'0 0.0
2014-Aug-30 18:32N 57°30' E 010°30'0 0.0
2014-Aug-30 17:30N 57°30' E 010°30'0 0.0
2014-Aug-30 16:25N 57°30' E 010°30'0 0.0
2014-Aug-30 15:32N 57°30' E 010°30'0 0.0
2014-Aug-30 14:31N 57°30' E 010°30'0 0.0
2014-Aug-30 13:33N 57°30' E 010°30'0 0.0
2014-Aug-30 12:31N 57°30' E 010°30'0 0.0
2014-Aug-30 10:25N 57°30' E 010°30'0 0.0
2014-Aug-30 09:29N 57°30' E 010°30'0 0.0
2014-Aug-30 08:33N 57°30' E 010°30'0 0.0
2014-Aug-30 07:30N 57°30' E 010°30'0 0.0
2014-Aug-30 06:33N 57°30' E 010°30'0 0.0
2014-Aug-30 05:33N 57°30' E 010°30'0 0.0
2014-Aug-30 04:33N 57°30' E 010°30'0 0.0
2014-Aug-30 03:34N 57°30' E 010°30'0 0.0
2014-Aug-30 02:31N 57°30' E 010°30'0 0.0
2014-Aug-30 01:32N 57°30' E 010°30'0 0.0
2014-Aug-30 00:33N 57°30' E 010°30'0 0.0
2014-Aug-29 23:30N 57°30' E 010°30'0 0.0
2014-Aug-29 22:32N 57°30' E 010°30'0 0.0
2014-Aug-29 21:33N 57°30' E 010°30'0 0.0
2014-Aug-29 20:29N 57°30' E 010°30'0 0.0
2014-Aug-29 19:33N 57°30' E 010°30'0 0.0
2014-Aug-29 18:11N 57°30' E 010°30'0 0.0
2014-Aug-29 17:10N 57°30' E 010°30'0 0.0
2014-Aug-29 16:06N 57°30' E 010°30'0 0.0
2014-Aug-29 15:32N 57°30' E 010°30'0 0.0
2014-Aug-29 11:23N 57°30' E 010°30'0 0.0
2014-Aug-29 10:33N 57°30' E 010°30'0 0.0
2014-Aug-29 08:19N 57°30' E 010°30'0 0.0
2014-Aug-29 07:28N 57°30' E 010°30'0 0.0
2014-Aug-29 06:33N 57°30' E 010°30'0 0.0
2014-Aug-29 05:33N 57°30' E 010°30'13 5.5
2014-Aug-29 03:14N 57°30' E 010°54'9 2.3
2014-Aug-28 23:26N 57°35' E 011°08'0 0.4
2014-Aug-28 22:33N 57°35' E 011°08'2 2.5
2014-Aug-28 21:33N 57°33' E 011°05'2 2.5
2014-Aug-28 20:34N 57°32' E 011°01'3 2.5
2014-Aug-28 19:34N 57°30' E 010°57'3 2.5
2014-Aug-28 18:33N 57°29' E 010°54'13 1.0
2014-Aug-28 06:27N 57°30' E 010°30'0 0.0
2014-Aug-28 05:33N 57°30' E 010°30'0 0.0
2014-Aug-28 04:24N 57°30' E 010°30'9 2.3
2014-Aug-28 00:23N 57°28' E 010°47'3 3.5
2014-Aug-27 23:33N 57°28' E 010°53'3 2.5
2014-Aug-27 22:22N 57°30' E 010°57'2 2.5
2014-Aug-27 21:31N 57°32' E 010°60'2 2.5
2014-Aug-27 20:31N 57°33' E 011°04'2 2.5
2014-Aug-27 19:33N 57°34' E 011°08'2 2.4
2014-Aug-27 18:33N 57°36' E 011°10'3 2.5
2014-Aug-27 17:33N 57°39' E 011°10'3 2.5
2014-Aug-27 16:32N 57°41' E 011°08'2 2.0
2014-Aug-27 15:33N 57°43' E 011°06'5 2.3
2014-Aug-27 13:33N 57°47' E 011°07'2 2.4
2014-Aug-27 12:33N 57°50' E 011°07'2 2.3
2014-Aug-27 11:33N 57°49' E 011°03'2 2.3
2014-Aug-27 10:33N 57°47' E 010°60'3 2.5
2014-Aug-27 09:33N 57°49' E 011°03'2 1.6
2014-Aug-27 08:28N 57°48' E 011°01'1 0.7
2014-Aug-27 07:24N 57°48' E 011°02'3 2.6
2014-Aug-27 06:20N 57°50' E 011°06'2 2.4
2014-Aug-27 05:33N 57°48' E 011°07'2 2.5
2014-Aug-27 04:33N 57°46' E 011°09'2 2.4
2014-Aug-27 03:33N 57°43' E 011°09'2 2.5
2014-Aug-27 02:33N 57°44' E 011°05'1 0.6
2014-Aug-27 01:33N 57°44' E 011°05'3 2.5
2014-Aug-27 00:33N 57°41' E 011°06'3 2.6
2014-Aug-26 23:33N 57°39' E 011°06'2 2.5
2014-Aug-26 22:34N 57°36' E 011°06'3 2.6
2014-Aug-26 21:34N 57°34' E 011°04'2 2.4
2014-Aug-26 20:34N 57°32' E 011°01'3 2.6
2014-Aug-26 19:33N 57°30' E 010°57'3 2.5
2014-Aug-26 18:33N 57°29' E 010°54'12 6.1
2014-Aug-26 16:33N 57°30' E 010°31'0 0.4
2014-Aug-26 15:22N 57°30' E 010°30'0 0.2
2014-Aug-26 14:29N 57°30' E 010°30'0 0.0
2014-Aug-26 08:20N 57°30' E 010°30'0 0.0
2014-Aug-26 07:30N 57°30' E 010°30'0 0.0
2014-Aug-26 06:32N 57°30' E 010°30'0 0.0
2014-Aug-26 05:31N 57°30' E 010°30'9 4.3
2014-Aug-26 03:24N 57°29' E 010°47'4 4.4
2014-Aug-26 02:33N 57°29' E 010°54'10 2.4
2014-Aug-25 22:33N 57°35' E 011°08'2 2.2
2014-Aug-25 21:33N 57°34' E 011°05'3 2.5
2014-Aug-25 20:11N 57°32' E 011°00'2 2.5
2014-Aug-25 19:33N 57°31' E 010°58'2 2.5
2014-Aug-25 18:34N 57°29' E 010°54'9 0.4
2014-Aug-24 21:09N 57°34' E 010°39'6 0.4
2014-Aug-24 07:16N 57°30' E 010°30'0 0.0
2014-Aug-24 06:22N 57°30' E 010°30'0 0.0
2014-Aug-24 05:11N 57°30' E 010°30'0 0.0
2014-Aug-24 04:09N 57°30' E 010°30'0 0.0
2014-Aug-24 03:33N 57°30' E 010°30'0 0.0
2014-Aug-24 02:33N 57°30' E 010°30'0 0.0
2014-Aug-24 01:32N 57°30' E 010°30'0 0.0
2014-Aug-24 00:23N 57°30' E 010°30'0 0.0
2014-Aug-23 23:29N 57°30' E 010°30'0 0.0
2014-Aug-23 22:32N 57°30' E 010°30'0 0.0
2014-Aug-23 21:30N 57°30' E 010°30'0 0.0
2014-Aug-23 20:30N 57°30' E 010°30'0 0.0
2014-Aug-23 19:32N 57°30' E 010°30'0 0.0
2014-Aug-23 03:32N 57°30' E 010°30'  

Dump ship's entire track history